sensor_id;sensor_type;location;lat;lon;timestamp;P1;durP1;ratioP1;P2;durP2;ratioP2
70420;SDS011;57848;51.938;15.520;2023-11-18T00:01:48;6.20;;;2.10;;
70420;SDS011;57848;51.938;15.520;2023-11-18T00:04:13;7.15;;;2.47;;
70420;SDS011;57848;51.938;15.520;2023-11-18T00:06:42;6.43;;;2.27;;
70420;SDS011;57848;51.938;15.520;2023-11-18T00:09:11;6.57;;;2.22;;
70420;SDS011;57848;51.938;15.520;2023-11-18T00:11:40;6.10;;;2.35;;
70420;SDS011;57848;51.938;15.520;2023-11-18T00:14:07;7.43;;;2.15;;
70420;SDS011;57848;51.938;15.520;2023-11-18T00:16:32;7.60;;;2.50;;
70420;SDS011;57848;51.938;15.520;2023-11-18T00:18:59;7.28;;;2.33;;
70420;SDS011;57848;51.938;15.520;2023-11-18T00:21:25;7.33;;;2.80;;
70420;SDS011;57848;51.938;15.520;2023-11-18T00:23:50;6.93;;;3.00;;
70420;SDS011;57848;51.938;15.520;2023-11-18T00:26:16;9.47;;;2.90;;
70420;SDS011;57848;51.938;15.520;2023-11-18T00:28:44;8.10;;;2.78;;
70420;SDS011;57848;51.938;15.520;2023-11-18T00:31:09;9.83;;;3.13;;
70420;SDS011;57848;51.938;15.520;2023-11-18T00:33:35;7.40;;;3.00;;
70420;SDS011;57848;51.938;15.520;2023-11-18T00:36:01;7.30;;;2.83;;
70420;SDS011;57848;51.938;15.520;2023-11-18T00:38:27;8.20;;;2.58;;
70420;SDS011;57848;51.938;15.520;2023-11-18T00:40:53;7.60;;;2.67;;
70420;SDS011;57848;51.938;15.520;2023-11-18T00:43:18;8.20;;;2.70;;
70420;SDS011;57848;51.938;15.520;2023-11-18T00:45:43;11.15;;;2.97;;
70420;SDS011;57848;51.938;15.520;2023-11-18T00:48:09;7.47;;;2.50;;
70420;SDS011;57848;51.938;15.520;2023-11-18T00:50:35;7.43;;;2.77;;
70420;SDS011;57848;51.938;15.520;2023-11-18T00:53:00;8.00;;;2.88;;
70420;SDS011;57848;51.938;15.520;2023-11-18T00:55:26;7.30;;;2.60;;
70420;SDS011;57848;51.938;15.520;2023-11-18T00:57:51;9.82;;;3.20;;
70420;SDS011;57848;51.938;15.520;2023-11-18T01:00:17;8.60;;;3.20;;
70420;SDS011;57848;51.938;15.520;2023-11-18T01:02:47;9.10;;;3.72;;
70420;SDS011;57848;51.938;15.520;2023-11-18T01:05:14;8.30;;;3.03;;
70420;SDS011;57848;51.938;15.520;2023-11-18T01:07:40;10.88;;;3.72;;
70420;SDS011;57848;51.938;15.520;2023-11-18T01:10:06;10.43;;;3.40;;
70420;SDS011;57848;51.938;15.520;2023-11-18T01:12:32;9.32;;;3.38;;
70420;SDS011;57848;51.938;15.520;2023-11-18T01:14:59;8.77;;;2.97;;
70420;SDS011;57848;51.938;15.520;2023-11-18T01:17:25;7.90;;;3.27;;
70420;SDS011;57848;51.938;15.520;2023-11-18T01:19:50;7.35;;;2.90;;
70420;SDS011;57848;51.938;15.520;2023-11-18T01:22:16;7.70;;;2.67;;
70420;SDS011;57848;51.938;15.520;2023-11-18T01:24:43;9.77;;;3.00;;
70420;SDS011;57848;51.938;15.520;2023-11-18T01:27:09;8.10;;;2.85;;
70420;SDS011;57848;51.938;15.520;2023-11-18T01:29:37;6.73;;;2.40;;
70420;SDS011;57848;51.938;15.520;2023-11-18T01:32:04;8.57;;;2.70;;
70420;SDS011;57848;51.938;15.520;2023-11-18T01:34:37;9.70;;;2.75;;
70420;SDS011;57848;51.938;15.520;2023-11-18T01:37:04;8.10;;;2.50;;
70420;SDS011;57848;51.938;15.520;2023-11-18T01:39:33;7.15;;;2.38;;
70420;SDS011;57848;51.938;15.520;2023-11-18T01:41:59;6.77;;;2.33;;
70420;SDS011;57848;51.938;15.520;2023-11-18T01:44:25;8.80;;;2.83;;
70420;SDS011;57848;51.938;15.520;2023-11-18T01:46:53;7.57;;;2.73;;
70420;SDS011;57848;51.938;15.520;2023-11-18T01:49:19;6.80;;;2.53;;
70420;SDS011;57848;51.938;15.520;2023-11-18T01:51:46;7.90;;;2.90;;
70420;SDS011;57848;51.938;15.520;2023-11-18T01:54:11;7.13;;;2.45;;
70420;SDS011;57848;51.938;15.520;2023-11-18T01:56:43;8.63;;;2.67;;
70420;SDS011;57848;51.938;15.520;2023-11-18T01:59:11;8.07;;;3.17;;
70420;SDS011;57848;51.938;15.520;2023-11-18T02:01:43;7.82;;;3.03;;
70420;SDS011;57848;51.938;15.520;2023-11-18T02:04:14;8.15;;;2.65;;
70420;SDS011;57848;51.938;15.520;2023-11-18T02:06:40;10.00;;;3.25;;
70420;SDS011;57848;51.938;15.520;2023-11-18T02:09:07;7.65;;;2.85;;
70420;SDS011;57848;51.938;15.520;2023-11-18T02:11:44;8.23;;;3.17;;
70420;SDS011;57848;51.938;15.520;2023-11-18T02:14:17;8.02;;;3.08;;
70420;SDS011;57848;51.938;15.520;2023-11-18T02:16:45;8.37;;;3.07;;
70420;SDS011;57848;51.938;15.520;2023-11-18T02:19:16;7.70;;;2.95;;
70420;SDS011;57848;51.938;15.520;2023-11-18T02:21:46;7.72;;;2.92;;
70420;SDS011;57848;51.938;15.520;2023-11-18T02:24:28;7.80;;;2.65;;
70420;SDS011;57848;51.938;15.520;2023-11-18T02:27:02;7.28;;;2.60;;
70420;SDS011;57848;51.938;15.520;2023-11-18T02:29:34;8.43;;;2.70;;
70420;SDS011;57848;51.938;15.520;2023-11-18T02:37:30;8.07;;;2.65;;
70420;SDS011;57848;51.938;15.520;2023-11-18T02:40:01;9.07;;;3.17;;
70420;SDS011;57848;51.938;15.520;2023-11-18T02:42:39;8.90;;;3.40;;
70420;SDS011;57848;51.938;15.520;2023-11-18T02:45:08;8.43;;;3.33;;
70420;SDS011;57848;51.938;15.520;2023-11-18T02:47:37;8.45;;;3.30;;
70420;SDS011;57848;51.938;15.520;2023-11-18T02:50:04;8.77;;;3.20;;
70420;SDS011;57848;51.938;15.520;2023-11-18T02:52:36;9.25;;;3.53;;
70420;SDS011;57848;51.938;15.520;2023-11-18T02:55:10;9.07;;;3.30;;
70420;SDS011;57848;51.938;15.520;2023-11-18T02:57:36;10.65;;;3.63;;
70420;SDS011;57848;51.938;15.520;2023-11-18T03:00:03;8.60;;;3.47;;
70420;SDS011;57848;51.938;15.520;2023-11-18T03:02:36;8.32;;;3.85;;
70420;SDS011;57848;51.938;15.520;2023-11-18T03:05:05;8.37;;;4.00;;
70420;SDS011;57848;51.938;15.520;2023-11-18T03:07:32;8.38;;;3.38;;
70420;SDS011;57848;51.938;15.520;2023-11-18T03:09:58;8.18;;;3.90;;
70420;SDS011;57848;51.938;15.520;2023-11-18T03:12:25;8.50;;;3.77;;
70420;SDS011;57848;51.938;15.520;2023-11-18T03:14:53;10.05;;;3.97;;
70420;SDS011;57848;51.938;15.520;2023-11-18T03:17:19;9.65;;;3.85;;
70420;SDS011;57848;51.938;15.520;2023-11-18T03:19:45;9.55;;;3.92;;
70420;SDS011;57848;51.938;15.520;2023-11-18T03:22:11;10.73;;;4.40;;
70420;SDS011;57848;51.938;15.520;2023-11-18T03:24:38;9.43;;;4.10;;
70420;SDS011;57848;51.938;15.520;2023-11-18T03:27:04;12.15;;;4.00;;
70420;SDS011;57848;51.938;15.520;2023-11-18T03:29:29;10.17;;;4.90;;
70420;SDS011;57848;51.938;15.520;2023-11-18T03:31:55;10.13;;;4.50;;
70420;SDS011;57848;51.938;15.520;2023-11-18T03:34:20;10.32;;;4.90;;
70420;SDS011;57848;51.938;15.520;2023-11-18T03:36:47;10.67;;;4.90;;
70420;SDS011;57848;51.938;15.520;2023-11-18T03:39:12;13.30;;;5.20;;
70420;SDS011;57848;51.938;15.520;2023-11-18T03:41:39;9.70;;;4.30;;
70420;SDS011;57848;51.938;15.520;2023-11-18T03:44:05;10.82;;;5.50;;
70420;SDS011;57848;51.938;15.520;2023-11-18T03:46:30;13.00;;;4.73;;
70420;SDS011;57848;51.938;15.520;2023-11-18T03:49:02;11.65;;;5.10;;
70420;SDS011;57848;51.938;15.520;2023-11-18T03:51:28;11.43;;;5.32;;
70420;SDS011;57848;51.938;15.520;2023-11-18T03:53:53;10.00;;;4.60;;
70420;SDS011;57848;51.938;15.520;2023-11-18T03:56:19;10.20;;;4.55;;
70420;SDS011;57848;51.938;15.520;2023-11-18T03:58:44;9.80;;;4.27;;
70420;SDS011;57848;51.938;15.520;2023-11-18T04:01:20;12.48;;;5.30;;
70420;SDS011;57848;51.938;15.520;2023-11-18T04:03:48;11.70;;;4.75;;
70420;SDS011;57848;51.938;15.520;2023-11-18T04:06:16;12.10;;;5.80;;
70420;SDS011;57848;51.938;15.520;2023-11-18T04:08:45;10.70;;;4.90;;
70420;SDS011;57848;51.938;15.520;2023-11-18T04:11:12;11.18;;;5.28;;
70420;SDS011;57848;51.938;15.520;2023-11-18T04:13:39;11.73;;;5.45;;
70420;SDS011;57848;51.938;15.520;2023-11-18T04:16:12;9.50;;;4.57;;
70420;SDS011;57848;51.938;15.520;2023-11-18T04:18:40;11.83;;;5.63;;
70420;SDS011;57848;51.938;15.520;2023-11-18T04:21:07;10.55;;;4.82;;
70420;SDS011;57848;51.938;15.520;2023-11-18T04:23:39;11.13;;;5.18;;
70420;SDS011;57848;51.938;15.520;2023-11-18T04:26:06;11.43;;;5.60;;
70420;SDS011;57848;51.938;15.520;2023-11-18T04:28:33;11.48;;;5.32;;
70420;SDS011;57848;51.938;15.520;2023-11-18T04:30:59;11.67;;;5.27;;
70420;SDS011;57848;51.938;15.520;2023-11-18T04:33:24;11.02;;;5.05;;
70420;SDS011;57848;51.938;15.520;2023-11-18T04:35:51;11.70;;;4.57;;
70420;SDS011;57848;51.938;15.520;2023-11-18T04:38:17;14.88;;;6.10;;
70420;SDS011;57848;51.938;15.520;2023-11-18T04:40:43;12.70;;;5.03;;
70420;SDS011;57848;51.938;15.520;2023-11-18T04:43:11;11.17;;;5.13;;
70420;SDS011;57848;51.938;15.520;2023-11-18T04:45:37;11.85;;;5.38;;
70420;SDS011;57848;51.938;15.520;2023-11-18T04:48:03;10.88;;;5.53;;
70420;SDS011;57848;51.938;15.520;2023-11-18T04:50:30;11.47;;;5.30;;
70420;SDS011;57848;51.938;15.520;2023-11-18T04:52:57;11.27;;;5.70;;
70420;SDS011;57848;51.938;15.520;2023-11-18T04:55:22;10.47;;;5.40;;
70420;SDS011;57848;51.938;15.520;2023-11-18T04:57:47;12.55;;;6.10;;
70420;SDS011;57848;51.938;15.520;2023-11-18T05:00:13;12.03;;;5.70;;
70420;SDS011;57848;51.938;15.520;2023-11-18T05:02:42;10.90;;;5.32;;
70420;SDS011;57848;51.938;15.520;2023-11-18T05:05:08;10.77;;;5.80;;
70420;SDS011;57848;51.938;15.520;2023-11-18T05:07:34;11.95;;;6.18;;
70420;SDS011;57848;51.938;15.520;2023-11-18T05:10:00;11.85;;;5.45;;
70420;SDS011;57848;51.938;15.520;2023-11-18T05:12:26;11.80;;;5.50;;
70420;SDS011;57848;51.938;15.520;2023-11-18T05:14:54;12.68;;;6.00;;
70420;SDS011;57848;51.938;15.520;2023-11-18T05:17:21;12.83;;;6.40;;
70420;SDS011;57848;51.938;15.520;2023-11-18T05:19:47;10.70;;;5.38;;
70420;SDS011;57848;51.938;15.520;2023-11-18T05:22:13;11.43;;;5.35;;
70420;SDS011;57848;51.938;15.520;2023-11-18T05:24:38;11.43;;;5.77;;
70420;SDS011;57848;51.938;15.520;2023-11-18T05:27:04;12.70;;;5.83;;
70420;SDS011;57848;51.938;15.520;2023-11-18T05:29:30;12.13;;;5.75;;
70420;SDS011;57848;51.938;15.520;2023-11-18T05:31:55;12.60;;;6.20;;
70420;SDS011;57848;51.938;15.520;2023-11-18T05:34:21;14.90;;;6.13;;
70420;SDS011;57848;51.938;15.520;2023-11-18T05:36:47;11.53;;;5.37;;
70420;SDS011;57848;51.938;15.520;2023-11-18T05:39:13;13.32;;;6.70;;
70420;SDS011;57848;51.938;15.520;2023-11-18T05:41:40;13.48;;;5.85;;
70420;SDS011;57848;51.938;15.520;2023-11-18T05:44:06;15.25;;;5.85;;
70420;SDS011;57848;51.938;15.520;2023-11-18T05:46:34;11.63;;;5.30;;
70420;SDS011;57848;51.938;15.520;2023-11-18T05:49:03;11.65;;;5.68;;
70420;SDS011;57848;51.938;15.520;2023-11-18T05:51:33;12.55;;;5.88;;
70420;SDS011;57848;51.938;15.520;2023-11-18T05:53:58;11.90;;;6.10;;
70420;SDS011;57848;51.938;15.520;2023-11-18T05:56:23;12.17;;;6.10;;
70420;SDS011;57848;51.938;15.520;2023-11-18T05:58:50;13.38;;;6.05;;
70420;SDS011;57848;51.938;15.520;2023-11-18T06:01:18;12.70;;;6.07;;
70420;SDS011;57848;51.938;15.520;2023-11-18T06:03:43;12.67;;;5.67;;
70420;SDS011;57848;51.938;15.520;2023-11-18T06:06:11;11.70;;;5.32;;
70420;SDS011;57848;51.938;15.520;2023-11-18T06:08:39;14.60;;;6.00;;
70420;SDS011;57848;51.938;15.520;2023-11-18T06:11:11;13.57;;;6.10;;
70420;SDS011;57848;51.938;15.520;2023-11-18T06:13:47;13.00;;;6.30;;
70420;SDS011;57848;51.938;15.520;2023-11-18T06:16:21;13.43;;;6.03;;
70420;SDS011;57848;51.938;15.520;2023-11-18T06:18:49;13.30;;;6.88;;
70420;SDS011;57848;51.938;15.520;2023-11-18T06:21:22;14.23;;;6.45;;
70420;SDS011;57848;51.938;15.520;2023-11-18T06:23:50;12.68;;;6.63;;
70420;SDS011;57848;51.938;15.520;2023-11-18T06:26:16;14.43;;;6.30;;
70420;SDS011;57848;51.938;15.520;2023-11-18T06:28:43;14.73;;;6.70;;
70420;SDS011;57848;51.938;15.520;2023-11-18T06:31:09;13.48;;;6.35;;
70420;SDS011;57848;51.938;15.520;2023-11-18T06:33:43;15.68;;;7.28;;
70420;SDS011;57848;51.938;15.520;2023-11-18T06:36:19;13.43;;;7.03;;
70420;SDS011;57848;51.938;15.520;2023-11-18T06:38:51;11.60;;;5.80;;
70420;SDS011;57848;51.938;15.520;2023-11-18T06:41:19;16.10;;;8.73;;
70420;SDS011;57848;51.938;15.520;2023-11-18T06:43:48;15.38;;;8.38;;
70420;SDS011;57848;51.938;15.520;2023-11-18T06:46:24;13.35;;;7.30;;
70420;SDS011;57848;51.938;15.520;2023-11-18T06:48:51;15.80;;;7.50;;
70420;SDS011;57848;51.938;15.520;2023-11-18T06:51:22;18.05;;;8.50;;
70420;SDS011;57848;51.938;15.520;2023-11-18T06:53:52;15.93;;;7.17;;
70420;SDS011;57848;51.938;15.520;2023-11-18T06:56:21;16.25;;;7.93;;
70420;SDS011;57848;51.938;15.520;2023-11-18T06:58:47;18.95;;;9.15;;
70420;SDS011;57848;51.938;15.520;2023-11-18T07:01:12;17.33;;;9.80;;
70420;SDS011;57848;51.938;15.520;2023-11-18T07:03:39;17.70;;;8.60;;
70420;SDS011;57848;51.938;15.520;2023-11-18T07:06:09;17.05;;;9.63;;
70420;SDS011;57848;51.938;15.520;2023-11-18T07:08:35;18.42;;;10.48;;
70420;SDS011;57848;51.938;15.520;2023-11-18T07:11:01;17.03;;;9.13;;
70420;SDS011;57848;51.938;15.520;2023-11-18T07:13:27;17.13;;;8.57;;
70420;SDS011;57848;51.938;15.520;2023-11-18T07:15:53;30.65;;;20.33;;
70420;SDS011;57848;51.938;15.520;2023-11-18T07:18:22;17.30;;;8.35;;
70420;SDS011;57848;51.938;15.520;2023-11-18T07:20:48;13.35;;;6.25;;
70420;SDS011;57848;51.938;15.520;2023-11-18T07:23:14;13.20;;;6.20;;
70420;SDS011;57848;51.938;15.520;2023-11-18T07:25:42;12.40;;;6.15;;
70420;SDS011;57848;51.938;15.520;2023-11-18T07:28:09;13.63;;;7.15;;
70420;SDS011;57848;51.938;15.520;2023-11-18T07:30:34;15.40;;;6.83;;
70420;SDS011;57848;51.938;15.520;2023-11-18T07:33:02;12.30;;;6.40;;
70420;SDS011;57848;51.938;15.520;2023-11-18T07:35:28;11.90;;;6.28;;
70420;SDS011;57848;51.938;15.520;2023-11-18T07:37:55;11.77;;;4.80;;
70420;SDS011;57848;51.938;15.520;2023-11-18T07:40:21;12.38;;;5.53;;
70420;SDS011;57848;51.938;15.520;2023-11-18T07:42:53;12.70;;;5.82;;
70420;SDS011;57848;51.938;15.520;2023-11-18T07:45:20;13.88;;;6.97;;
70420;SDS011;57848;51.938;15.520;2023-11-18T07:47:49;13.93;;;6.93;;
70420;SDS011;57848;51.938;15.520;2023-11-18T07:50:16;21.00;;;7.73;;
70420;SDS011;57848;51.938;15.520;2023-11-18T07:52:46;20.45;;;7.82;;
70420;SDS011;57848;51.938;15.520;2023-11-18T07:55:13;12.63;;;5.47;;
70420;SDS011;57848;51.938;15.520;2023-11-18T07:57:39;8.90;;;4.03;;
70420;SDS011;57848;51.938;15.520;2023-11-18T08:00:05;11.82;;;4.15;;
70420;SDS011;57848;51.938;15.520;2023-11-18T08:02:38;13.00;;;5.15;;
70420;SDS011;57848;51.938;15.520;2023-11-18T08:05:04;12.00;;;5.40;;
70420;SDS011;57848;51.938;15.520;2023-11-18T08:07:35;15.77;;;7.53;;
70420;SDS011;57848;51.938;15.520;2023-11-18T08:10:04;17.08;;;7.55;;
70420;SDS011;57848;51.938;15.520;2023-11-18T08:12:30;19.73;;;9.07;;
70420;SDS011;57848;51.938;15.520;2023-11-18T08:14:57;17.83;;;8.73;;
70420;SDS011;57848;51.938;15.520;2023-11-18T08:17:24;29.00;;;14.25;;
70420;SDS011;57848;51.938;15.520;2023-11-18T08:19:50;21.60;;;9.67;;
70420;SDS011;57848;51.938;15.520;2023-11-18T08:22:17;15.05;;;7.40;;
70420;SDS011;57848;51.938;15.520;2023-11-18T08:24:44;27.48;;;13.32;;
70420;SDS011;57848;51.938;15.520;2023-11-18T08:27:09;12.75;;;6.10;;
70420;SDS011;57848;51.938;15.520;2023-11-18T08:29:36;14.55;;;6.63;;
70420;SDS011;57848;51.938;15.520;2023-11-18T08:32:03;14.60;;;5.80;;
70420;SDS011;57848;51.938;15.520;2023-11-18T08:34:29;13.32;;;6.38;;
70420;SDS011;57848;51.938;15.520;2023-11-18T08:36:55;11.93;;;5.43;;
70420;SDS011;57848;51.938;15.520;2023-11-18T08:39:20;13.37;;;5.93;;
70420;SDS011;57848;51.938;15.520;2023-11-18T08:41:50;12.98;;;6.78;;
70420;SDS011;57848;51.938;15.520;2023-11-18T08:44:16;12.27;;;5.43;;
70420;SDS011;57848;51.938;15.520;2023-11-18T08:46:42;12.15;;;4.93;;
70420;SDS011;57848;51.938;15.520;2023-11-18T08:49:08;9.48;;;4.22;;
70420;SDS011;57848;51.938;15.520;2023-11-18T08:51:42;11.32;;;4.78;;
70420;SDS011;57848;51.938;15.520;2023-11-18T08:54:08;8.20;;;3.83;;
70420;SDS011;57848;51.938;15.520;2023-11-18T08:56:53;10.27;;;3.95;;
70420;SDS011;57848;51.938;15.520;2023-11-18T08:59:22;10.55;;;4.40;;
70420;SDS011;57848;51.938;15.520;2023-11-18T09:01:51;9.30;;;3.55;;
70420;SDS011;57848;51.938;15.520;2023-11-18T09:04:23;9.27;;;3.85;;
70420;SDS011;57848;51.938;15.520;2023-11-18T09:06:50;10.20;;;4.33;;
70420;SDS011;57848;51.938;15.520;2023-11-18T09:09:19;12.07;;;3.50;;
70420;SDS011;57848;51.938;15.520;2023-11-18T09:11:52;8.65;;;3.60;;
70420;SDS011;57848;51.938;15.520;2023-11-18T09:14:21;7.55;;;3.40;;
70420;SDS011;57848;51.938;15.520;2023-11-18T09:16:49;8.52;;;3.60;;
70420;SDS011;57848;51.938;15.520;2023-11-18T09:19:15;9.83;;;3.77;;
70420;SDS011;57848;51.938;15.520;2023-11-18T09:21:42;9.95;;;4.20;;
70420;SDS011;57848;51.938;15.520;2023-11-18T09:24:09;9.53;;;4.23;;
70420;SDS011;57848;51.938;15.520;2023-11-18T09:26:37;8.63;;;3.88;;
70420;SDS011;57848;51.938;15.520;2023-11-18T09:29:03;10.63;;;4.68;;
70420;SDS011;57848;51.938;15.520;2023-11-18T09:31:29;11.47;;;4.70;;
70420;SDS011;57848;51.938;15.520;2023-11-18T09:33:56;9.88;;;4.60;;
70420;SDS011;57848;51.938;15.520;2023-11-18T09:36:22;9.80;;;4.40;;
70420;SDS011;57848;51.938;15.520;2023-11-18T09:38:48;10.00;;;4.38;;
70420;SDS011;57848;51.938;15.520;2023-11-18T09:41:14;9.20;;;4.03;;
70420;SDS011;57848;51.938;15.520;2023-11-18T09:43:41;9.07;;;4.60;;
70420;SDS011;57848;51.938;15.520;2023-11-18T09:46:11;9.00;;;4.27;;
70420;SDS011;57848;51.938;15.520;2023-11-18T09:48:47;8.85;;;3.58;;
70420;SDS011;57848;51.938;15.520;2023-11-18T09:51:27;8.75;;;3.63;;
70420;SDS011;57848;51.938;15.520;2023-11-18T09:54:01;7.65;;;3.53;;
70420;SDS011;57848;51.938;15.520;2023-11-18T09:56:43;8.88;;;3.72;;
70420;SDS011;57848;51.938;15.520;2023-11-18T10:02:23;9.88;;;3.42;;
70420;SDS011;57848;51.938;15.520;2023-11-18T10:04:49;8.85;;;3.28;;
70420;SDS011;57848;51.938;15.520;2023-11-18T10:07:22;7.25;;;3.15;;
70420;SDS011;57848;51.938;15.520;2023-11-18T10:09:53;8.50;;;3.75;;
70420;SDS011;57848;51.938;15.520;2023-11-18T10:12:22;9.10;;;4.10;;
70420;SDS011;57848;51.938;15.520;2023-11-18T10:14:49;9.55;;;4.53;;
70420;SDS011;57848;51.938;15.520;2023-11-18T10:17:17;8.10;;;3.65;;
70420;SDS011;57848;51.938;15.520;2023-11-18T10:19:56;8.07;;;3.83;;
70420;SDS011;57848;51.938;15.520;2023-11-18T10:22:25;10.50;;;3.80;;
70420;SDS011;57848;51.938;15.520;2023-11-18T10:24:53;9.45;;;3.38;;
70420;SDS011;57848;51.938;15.520;2023-11-18T10:29:54;8.50;;;3.67;;
70420;SDS011;57848;51.938;15.520;2023-11-18T10:32:23;8.35;;;3.42;;
70420;SDS011;57848;51.938;15.520;2023-11-18T10:34:53;7.40;;;2.80;;
70420;SDS011;57848;51.938;15.520;2023-11-18T10:37:21;8.15;;;3.92;;
70420;SDS011;57848;51.938;15.520;2023-11-18T10:39:47;8.18;;;3.83;;
70420;SDS011;57848;51.938;15.520;2023-11-18T10:42:19;13.75;;;3.58;;
70420;SDS011;57848;51.938;15.520;2023-11-18T10:44:54;8.50;;;3.60;;
70420;SDS011;57848;51.938;15.520;2023-11-18T10:47:26;8.60;;;3.33;;
70420;SDS011;57848;51.938;15.520;2023-11-18T10:49:55;8.70;;;3.45;;
70420;SDS011;57848;51.938;15.520;2023-11-18T10:52:21;8.20;;;3.63;;
70420;SDS011;57848;51.938;15.520;2023-11-18T10:54:51;9.87;;;2.90;;
70420;SDS011;57848;51.938;15.520;2023-11-18T10:57:24;9.00;;;3.65;;
70420;SDS011;57848;51.938;15.520;2023-11-18T11:00:05;8.60;;;3.85;;
70420;SDS011;57848;51.938;15.520;2023-11-18T11:02:41;9.52;;;3.35;;
70420;SDS011;57848;51.938;15.520;2023-11-18T11:05:18;11.02;;;4.43;;
70420;SDS011;57848;51.938;15.520;2023-11-18T11:07:57;9.93;;;4.17;;
70420;SDS011;57848;51.938;15.520;2023-11-18T11:10:24;10.27;;;4.15;;
70420;SDS011;57848;51.938;15.520;2023-11-18T11:12:53;9.80;;;4.07;;
70420;SDS011;57848;51.938;15.520;2023-11-18T11:15:22;7.47;;;3.28;;
70420;SDS011;57848;51.938;15.520;2023-11-18T11:17:53;10.13;;;4.18;;
70420;SDS011;57848;51.938;15.520;2023-11-18T11:20:22;10.33;;;3.90;;
70420;SDS011;57848;51.938;15.520;2023-11-18T11:29:12;7.32;;;3.60;;
70420;SDS011;57848;51.938;15.520;2023-11-18T11:31:51;9.00;;;3.20;;
70420;SDS011;57848;51.938;15.520;2023-11-18T11:34:23;8.80;;;2.40;;
70420;SDS011;57848;51.938;15.520;2023-11-18T11:36:51;7.38;;;2.70;;
70420;SDS011;57848;51.938;15.520;2023-11-18T11:39:19;7.78;;;2.88;;
70420;SDS011;57848;51.938;15.520;2023-11-18T11:41:55;9.27;;;3.45;;
70420;SDS011;57848;51.938;15.520;2023-11-18T11:44:25;6.75;;;2.63;;
70420;SDS011;57848;51.938;15.520;2023-11-18T11:46:59;6.77;;;2.70;;
70420;SDS011;57848;51.938;15.520;2023-11-18T11:49:30;9.27;;;3.80;;
70420;SDS011;57848;51.938;15.520;2023-11-18T11:54:45;11.02;;;3.90;;
70420;SDS011;57848;51.938;15.520;2023-11-18T11:57:21;8.23;;;3.20;;
70420;SDS011;57848;51.938;15.520;2023-11-18T12:02:17;11.27;;;3.60;;
70420;SDS011;57848;51.938;15.520;2023-11-18T12:04:49;8.65;;;3.10;;
70420;SDS011;57848;51.938;15.520;2023-11-18T12:07:22;12.45;;;4.72;;
70420;SDS011;57848;51.938;15.520;2023-11-18T12:09:51;11.55;;;4.72;;
70420;SDS011;57848;51.938;15.520;2023-11-18T12:12:22;8.97;;;3.30;;
70420;SDS011;57848;51.938;15.520;2023-11-18T12:14:55;7.05;;;2.35;;
70420;SDS011;57848;51.938;15.520;2023-11-18T12:20:38;5.75;;;1.90;;
70420;SDS011;57848;51.938;15.520;2023-11-18T12:23:07;6.20;;;2.38;;
70420;SDS011;57848;51.938;15.520;2023-11-18T12:25:48;8.23;;;2.80;;
70420;SDS011;57848;51.938;15.520;2023-11-18T12:28:30;9.30;;;3.50;;
70420;SDS011;57848;51.938;15.520;2023-11-18T12:31:00;8.70;;;3.10;;
70420;SDS011;57848;51.938;15.520;2023-11-18T12:34:15;6.97;;;2.90;;
70420;SDS011;57848;51.938;15.520;2023-11-18T12:36:44;7.28;;;2.35;;
70420;SDS011;57848;51.938;15.520;2023-11-18T12:42:05;6.32;;;2.40;;
70420;SDS011;57848;51.938;15.520;2023-11-18T12:44:37;7.05;;;2.67;;
70420;SDS011;57848;51.938;15.520;2023-11-18T12:47:06;6.55;;;2.22;;
70420;SDS011;57848;51.938;15.520;2023-11-18T12:49:46;7.65;;;2.65;;
70420;SDS011;57848;51.938;15.520;2023-11-18T12:52:20;7.53;;;2.27;;
70420;SDS011;57848;51.938;15.520;2023-11-18T12:54:47;6.35;;;2.42;;
70420;SDS011;57848;51.938;15.520;2023-11-18T12:57:19;6.97;;;2.40;;
70420;SDS011;57848;51.938;15.520;2023-11-18T12:59:48;7.03;;;2.40;;
70420;SDS011;57848;51.938;15.520;2023-11-18T13:02:15;7.13;;;2.38;;
70420;SDS011;57848;51.938;15.520;2023-11-18T13:04:47;6.60;;;2.33;;
70420;SDS011;57848;51.938;15.520;2023-11-18T13:07:17;10.55;;;3.00;;
70420;SDS011;57848;51.938;15.520;2023-11-18T13:09:43;8.15;;;3.05;;
70420;SDS011;57848;51.938;15.520;2023-11-18T13:12:11;7.35;;;3.10;;
70420;SDS011;57848;51.938;15.520;2023-11-18T13:14:40;8.95;;;2.75;;
70420;SDS011;57848;51.938;15.520;2023-11-18T13:17:11;7.77;;;3.23;;
70420;SDS011;57848;51.938;15.520;2023-11-18T13:19:38;9.43;;;3.95;;
70420;SDS011;57848;51.938;15.520;2023-11-18T13:22:08;9.32;;;3.03;;
70420;SDS011;57848;51.938;15.520;2023-11-18T13:24:34;10.20;;;4.03;;
70420;SDS011;57848;51.938;15.520;2023-11-18T13:27:10;9.35;;;4.30;;
70420;SDS011;57848;51.938;15.520;2023-11-18T13:29:39;7.93;;;3.23;;
70420;SDS011;57848;51.938;15.520;2023-11-18T13:32:10;7.40;;;2.83;;
70420;SDS011;57848;51.938;15.520;2023-11-18T13:34:36;7.38;;;3.05;;
70420;SDS011;57848;51.938;15.520;2023-11-18T13:37:07;8.48;;;3.15;;
70420;SDS011;57848;51.938;15.520;2023-11-18T13:39:33;7.67;;;3.50;;
70420;SDS011;57848;51.938;15.520;2023-11-18T13:42:19;7.07;;;3.10;;
70420;SDS011;57848;51.938;15.520;2023-11-18T13:44:53;8.73;;;3.45;;
70420;SDS011;57848;51.938;15.520;2023-11-18T13:47:22;7.63;;;2.88;;
70420;SDS011;57848;51.938;15.520;2023-11-18T13:49:53;7.93;;;2.95;;
70420;SDS011;57848;51.938;15.520;2023-11-18T13:52:19;7.40;;;2.83;;
70420;SDS011;57848;51.938;15.520;2023-11-18T13:54:46;6.65;;;2.67;;
70420;SDS011;57848;51.938;15.520;2023-11-18T13:57:12;6.63;;;2.60;;
70420;SDS011;57848;51.938;15.520;2023-11-18T13:59:38;8.52;;;2.67;;
70420;SDS011;57848;51.938;15.520;2023-11-18T14:02:04;8.00;;;3.00;;
70420;SDS011;57848;51.938;15.520;2023-11-18T14:04:31;6.93;;;2.53;;
70420;SDS011;57848;51.938;15.520;2023-11-18T14:07:02;6.65;;;2.28;;
70420;SDS011;57848;51.938;15.520;2023-11-18T14:09:30;9.70;;;4.80;;
70420;SDS011;57848;51.938;15.520;2023-11-18T14:11:58;5.88;;;2.70;;
70420;SDS011;57848;51.938;15.520;2023-11-18T14:14:23;6.40;;;2.57;;
70420;SDS011;57848;51.938;15.520;2023-11-18T14:16:50;6.03;;;1.92;;
70420;SDS011;57848;51.938;15.520;2023-11-18T14:19:18;6.70;;;2.10;;
70420;SDS011;57848;51.938;15.520;2023-11-18T14:21:44;7.00;;;2.87;;
70420;SDS011;57848;51.938;15.520;2023-11-18T14:24:10;6.38;;;2.38;;
70420;SDS011;57848;51.938;15.520;2023-11-18T14:26:37;7.63;;;2.38;;
70420;SDS011;57848;51.938;15.520;2023-11-18T14:29:05;6.70;;;2.53;;
70420;SDS011;57848;51.938;15.520;2023-11-18T14:31:32;7.80;;;2.50;;
70420;SDS011;57848;51.938;15.520;2023-11-18T14:33:59;7.22;;;3.30;;
70420;SDS011;57848;51.938;15.520;2023-11-18T14:36:27;7.63;;;3.47;;
70420;SDS011;57848;51.938;15.520;2023-11-18T14:38:53;8.90;;;3.40;;
70420;SDS011;57848;51.938;15.520;2023-11-18T14:41:19;7.22;;;2.92;;
70420;SDS011;57848;51.938;15.520;2023-11-18T14:43:52;10.73;;;4.07;;
70420;SDS011;57848;51.938;15.520;2023-11-18T14:46:17;8.03;;;3.50;;
70420;SDS011;57848;51.938;15.520;2023-11-18T14:48:43;10.95;;;4.90;;
70420;SDS011;57848;51.938;15.520;2023-11-18T14:51:09;10.70;;;4.30;;
70420;SDS011;57848;51.938;15.520;2023-11-18T14:53:35;10.63;;;4.00;;
70420;SDS011;57848;51.938;15.520;2023-11-18T14:56:02;10.50;;;5.37;;
70420;SDS011;57848;51.938;15.520;2023-11-18T14:58:31;13.23;;;5.22;;
70420;SDS011;57848;51.938;15.520;2023-11-18T15:01:00;9.55;;;4.22;;
70420;SDS011;57848;51.938;15.520;2023-11-18T15:03:26;10.38;;;3.95;;
70420;SDS011;57848;51.938;15.520;2023-11-18T15:05:52;9.00;;;3.70;;